Atlantic - Newfoundland: Past 24 Hour Conditions

 

Miscou Island

12:00 AM AST 04 March 2015
Disclaimer

This table is a summary of hourly weather conditions for the past 24 hours.
Please note that these observations might not always be representative of weather conditions over their associated marine area.

Date / Time
(AST)
Wind(knots) Conditions Visibility(km) Pressure(kPa) Air tempC) Relative humidity(%) Dew pointC) Wind Chill
04 March 2015
0:00 S 6 N/A N/A 101.6 -15 81 -18 -22
03 March 2015
23:00 S 4 N/A N/A 101.7 -16 81 -18 -21
22:00 SW 5 N/A N/A 101.7 -15 76 -19 -21
21:00 WNW 7 N/A N/A 101.8 -12 69 -17 -19
20:00 W 7 N/A N/A 101.8 -13 72 -17 -20
19:00 W 8 N/A N/A 101.8 -12 69 -16 -19
18:00 WSW 13 N/A N/A 101.9 -11 69 -16 -20
17:00 WSW 14 gust 19 N/A N/A 101.8 -10 63 -16 -19
16:00 W 11 gust 16 N/A N/A 101.7 -10 57 -17 -18
15:00 W 13 gust 19 N/A N/A 101.7 -10 61 -16 -19
14:00 WNW 14 gust 20 N/A N/A 101.7 -11 57 -18 -20
13:00 W 16 gust 23 N/A N/A 101.6 -12 59 -18 -22
12:00 WNW 19 gust 24 N/A N/A 101.6 -13 60 -19 -24
11:00 WNW 17 gust 22 N/A N/A 101.6 -14 60 -20 -25
10:00 WNW 16 gust 21 N/A N/A 101.6 -15 64 -20 -26
9:00 WNW 21 gust 28 N/A N/A 101.5 -16 71 -20 -28
8:00 WNW 24 gust 30 N/A N/A 101.4 -16 76 -19 -29
7:00 WNW 24 gust 31 N/A N/A 101.3 -16 76 -19 -29
6:00 WNW 17 gust 23 N/A N/A 101.2 -15 72 -19 -27
5:00 W 20 gust 25 N/A N/A 101.0 -15 74 -18 -26
4:00 WNW 16 gust 26 N/A N/A 100.9 -13 76 -17 -24
3:00 WNW 16 gust 28 N/A N/A 100.7 -12 78 -15 -22
2:00 WNW 22 gust 31 N/A N/A 100.6 -11 79 -13 -22
1:00 WNW 24 gust 29 N/A N/A 100.4 -9 81 -12 -20
0:00 WNW 18 gust 27 N/A N/A 100.3 -7 84 -9 -16

Zoom-in to make a selection

Map of Atlantic - Newfoundland marine weather areas Southwestern Grand Banks - 44138 Banquereau - 44139 Tail of the Bank - 44140 Nickerson Bank - 44251 Northeast Burgeo Bank - 44255 Blanc-Sablon Airport Cap Whittle Chevery Natashquan Airport Heath Point Miscou Island Grand Étang Ingonish Beach North Mountain St.Paul Island J.A. Douglas McCurdy Sydney Airport Charlottetown Airport East Point North Cape Argentia Bonavista Burgeo Cape Race Corner Brook Daniel's Harbour Englee Ferolle Point La Scie Port aux Basques Rocky Harbour Sagona Island St. Anthony Airport St. John's Int'l Airport St. Lawrence Stephenville Airport Twillingate Winterland Wreckhouse Cartwright Airport Mary's Harbour Grates Cove Pool's Island Marticot Island Long Pond Îles de la Madeleine Airport
Legend:
buoy Buoy
land station Land Station

Atlantic - Newfoundland Area

Another Region

What we are doing

Date modified: